PWSweather.com
Personal Weather Stations
Station Observations
KMNGREYC2
Grey Cloud Island, Grey Cloud Island, MN 55071

Grey Cloud IslandGrey Cloud Island, MN 55071

Lat: 44.799333, Lon: -92.987851

Elevation: 700

Station Type: Davis VP2

www.jagielski.com/weather/conditions.htm

High Low Average
Temperature 86.4°F30.2°C 58.0°F14.4°C 68.1°F20.1°C
Dew Point 72.1°F22.3°C 53.1°F11.7°C 61.0°F16.1°C
Winds 5.0 mph 8.0 kmh Calm Calm Calm SWCalm SW
Wind Gusts 15.0 mph24.1 kmh -- 5.0 mph8.0 kmh
Humidity 97% 55% 79%
Pressure 29.84 in1010.5 mb 29.51 in999.3 mb -
Precipitation 0.00 in0.0 mm - -
Hour Temp Dew Point Humidity Winds Wind Gusts Pressure Precip Precip Rate Daily Precip Total
12:00 AM 67.7°F19.8°C 53.8°F12.1°C 61% 1.0 mph SW1.6 kmh SW 7.0 mph11.3 kmh 29.83 in1010.2 mb 0.00 in0.0 mm 0.00 in0.0 mm 0.00 in0.0 mm
12:15 AM 67.4°F19.7°C 54.4°F12.4°C 63% 1.0 mph SW1.6 kmh SW 4.0 mph6.4 kmh 29.83 in1010.2 mb 0.00 in0.0 mm 0.00 in0.0 mm 0.00 in0.0 mm
12:30 AM 66.8°F19.3°C 55.1°F12.8°C 66% Calm Calm 4.0 mph6.4 kmh 29.84 in1010.5 mb 0.00 in0.0 mm 0.00 in0.0 mm 0.00 in0.0 mm
12:45 AM 66.0°F18.9°C 55.2°F12.9°C 68% Calm Calm 3.0 mph4.8 kmh 29.84 in1010.5 mb 0.00 in0.0 mm 0.00 in0.0 mm 0.00 in0.0 mm
01:00 AM 65.2°F18.4°C 54.8°F12.7°C 69% Calm Calm 5.0 mph8.0 kmh 29.84 in1010.5 mb 0.00 in0.0 mm 0.00 in0.0 mm 0.00 in0.0 mm
01:15 AM 64.8°F18.2°C 54.8°F12.7°C 70% 3.0 mph SW4.8 kmh SW 5.0 mph8.0 kmh 29.83 in1010.2 mb 0.00 in0.0 mm 0.00 in0.0 mm 0.00 in0.0 mm
01:30 AM 64.8°F18.2°C 54.4°F12.4°C 69% Calm Calm 10.0 mph16.1 kmh 29.83 in1010.2 mb 0.00 in0.0 mm 0.00 in0.0 mm 0.00 in0.0 mm
01:45 AM 64.9°F18.3°C 54.5°F12.5°C 69% Calm Calm 6.0 mph9.7 kmh 29.83 in1010.2 mb 0.00 in0.0 mm 0.00 in0.0 mm 0.00 in0.0 mm
02:00 AM 65.0°F18.3°C 54.6°F12.6°C 69% Calm Calm 7.0 mph11.3 kmh 29.82 in1009.8 mb 0.00 in0.0 mm 0.00 in0.0 mm 0.00 in0.0 mm
02:15 AM 64.9°F18.3°C 54.9°F12.7°C 70% Calm Calm 2.0 mph3.2 kmh 29.81 in1009.5 mb 0.00 in0.0 mm 0.00 in0.0 mm 0.00 in0.0 mm
02:30 AM 64.7°F18.2°C 55.1°F12.8°C 71% Calm Calm 2.0 mph3.2 kmh 29.81 in1009.5 mb 0.00 in0.0 mm 0.00 in0.0 mm 0.00 in0.0 mm
02:45 AM 64.2°F17.9°C 55.0°F12.8°C 72% Calm Calm 2.0 mph3.2 kmh 29.80 in1009.1 mb 0.00 in0.0 mm 0.00 in0.0 mm 0.00 in0.0 mm
03:00 AM 63.5°F17.5°C 54.7°F12.6°C 73% Calm Calm 2.0 mph3.2 kmh 29.80 in1009.1 mb 0.00 in0.0 mm 0.00 in0.0 mm 0.00 in0.0 mm
03:15 AM 62.9°F17.2°C 54.9°F12.7°C 75% Calm Calm -- 29.79 in1008.8 mb 0.00 in0.0 mm 0.00 in0.0 mm 0.00 in0.0 mm
03:30 AM 62.3°F16.8°C 54.3°F12.4°C 75% Calm Calm 3.0 mph4.8 kmh 29.78 in1008.5 mb 0.00 in0.0 mm 0.00 in0.0 mm 0.00 in0.0 mm
03:45 AM 61.9°F16.6°C 54.6°F12.6°C 77% Calm Calm 1.0 mph1.6 kmh 29.78 in1008.5 mb 0.00 in0.0 mm 0.00 in0.0 mm 0.00 in0.0 mm
04:00 AM 61.4°F16.3°C 54.5°F12.5°C 78% Calm Calm 1.0 mph1.6 kmh 29.78 in1008.5 mb 0.00 in0.0 mm 0.00 in0.0 mm 0.00 in0.0 mm
04:15 AM 60.9°F16.1°C 54.4°F12.4°C 79% Calm Calm -- 29.78 in1008.5 mb 0.00 in0.0 mm 0.00 in0.0 mm 0.00 in0.0 mm
04:30 AM 60.4°F15.8°C 54.6°F12.6°C 81% Calm Calm 1.0 mph1.6 kmh 29.76 in1007.8 mb 0.00 in0.0 mm 0.00 in0.0 mm 0.00 in0.0 mm
04:45 AM 59.9°F15.5°C 54.1°F12.3°C 81% Calm Calm -- 29.75 in1007.5 mb 0.00 in0.0 mm 0.00 in0.0 mm 0.00 in0.0 mm
05:00 AM 59.3°F15.2°C 53.8°F12.1°C 82% Calm Calm -- 29.75 in1007.5 mb 0.00 in0.0 mm 0.00 in0.0 mm 0.00 in0.0 mm
05:15 AM 58.6°F14.8°C 53.1°F11.7°C 82% Calm Calm -- 29.74 in1007.1 mb 0.00 in0.0 mm 0.00 in0.0 mm 0.00 in0.0 mm
05:30 AM 58.1°F14.5°C 53.3°F11.8°C 84% Calm Calm 1.0 mph1.6 kmh 29.74 in1007.1 mb 0.00 in0.0 mm 0.00 in0.0 mm 0.00 in0.0 mm
05:45 AM 58.0°F14.4°C 54.2°F12.3°C 87% Calm Calm 1.0 mph1.6 kmh 29.74 in1007.1 mb 0.00 in0.0 mm 0.00 in0.0 mm 0.00 in0.0 mm
06:00 AM 58.3°F14.6°C 54.5°F12.5°C 87% Calm Calm 3.0 mph4.8 kmh 29.74 in1007.1 mb 0.00 in0.0 mm 0.00 in0.0 mm 0.00 in0.0 mm
06:15 AM 59.0°F15.0°C 54.8°F12.7°C 86% Calm Calm 3.0 mph4.8 kmh 29.73 in1006.8 mb 0.00 in0.0 mm 0.00 in0.0 mm 0.00 in0.0 mm
06:30 AM 59.7°F15.4°C 54.9°F12.7°C 84% 2.0 mph SSW3.2 kmh SSW 6.0 mph9.7 kmh 29.73 in1006.8 mb 0.00 in0.0 mm 0.00 in0.0 mm 0.00 in0.0 mm
06:45 AM 60.2°F15.7°C 55.0°F12.8°C 83% Calm Calm 6.0 mph9.7 kmh 29.73 in1006.8 mb 0.00 in0.0 mm 0.00 in0.0 mm 0.00 in0.0 mm
07:00 AM 60.9°F16.1°C 55.4°F13.0°C 82% Calm Calm 6.0 mph9.7 kmh 29.73 in1006.8 mb 0.00 in0.0 mm 0.00 in0.0 mm 0.00 in0.0 mm
07:15 AM 61.4°F16.3°C 55.5°F13.1°C 81% 2.0 mph SW3.2 kmh SW 5.0 mph8.0 kmh 29.74 in1007.1 mb 0.00 in0.0 mm 0.00 in0.0 mm 0.00 in0.0 mm
07:30 AM 62.1°F16.7°C 55.9°F13.3°C 80% Calm Calm 8.0 mph12.9 kmh 29.73 in1006.8 mb 0.00 in0.0 mm 0.00 in0.0 mm 0.00 in0.0 mm
07:45 AM 62.8°F17.1°C 56.2°F13.4°C 79% Calm Calm 5.0 mph8.0 kmh 29.73 in1006.8 mb 0.00 in0.0 mm 0.00 in0.0 mm 0.00 in0.0 mm
08:00 AM 63.4°F17.4°C 56.1°F13.4°C 77% Calm Calm 7.0 mph11.3 kmh 29.73 in1006.8 mb 0.00 in0.0 mm 0.00 in0.0 mm 0.00 in0.0 mm
08:15 AM 64.1°F17.8°C 56.8°F13.8°C 77% Calm Calm 7.0 mph11.3 kmh 29.73 in1006.8 mb 0.00 in0.0 mm 0.00 in0.0 mm 0.00 in0.0 mm
08:30 AM 64.8°F18.2°C 57.1°F13.9°C 76% Calm Calm 10.0 mph16.1 kmh 29.72 in1006.4 mb 0.00 in0.0 mm 0.00 in0.0 mm 0.00 in0.0 mm
08:45 AM 65.6°F18.7°C 57.5°F14.2°C 75% Calm Calm 9.0 mph14.5 kmh 29.72 in1006.4 mb 0.00 in0.0 mm 0.00 in0.0 mm 0.00 in0.0 mm
09:00 AM 66.3°F19.1°C 58.2°F14.6°C 75% 5.0 mph W8.0 kmh W 9.0 mph14.5 kmh 29.72 in1006.4 mb 0.00 in0.0 mm 0.00 in0.0 mm 0.00 in0.0 mm
09:15 AM 66.8°F19.3°C 58.3°F14.6°C 74% Calm Calm 6.0 mph9.7 kmh 29.72 in1006.4 mb 0.00 in0.0 mm 0.00 in0.0 mm 0.00 in0.0 mm
09:30 AM 67.1°F19.5°C 58.6°F14.8°C 74% Calm Calm 7.0 mph11.3 kmh 29.72 in1006.4 mb 0.00 in0.0 mm 0.00 in0.0 mm 0.00 in0.0 mm
09:45 AM 67.4°F19.7°C 58.8°F14.9°C 74% Calm Calm 6.0 mph9.7 kmh 29.72 in1006.4 mb 0.00 in0.0 mm 0.00 in0.0 mm 0.00 in0.0 mm
10:00 AM 68.0°F20.0°C 59.0°F15.0°C 73% Calm Calm 6.0 mph9.7 kmh 29.71 in1006.1 mb 0.00 in0.0 mm 0.00 in0.0 mm 0.00 in0.0 mm
10:15 AM 68.8°F20.4°C 60.2°F15.7°C 74% Calm Calm 4.0 mph6.4 kmh 29.71 in1006.1 mb 0.00 in0.0 mm 0.00 in0.0 mm 0.00 in0.0 mm
10:30 AM 69.6°F20.9°C 61.0°F16.1°C 74% Calm Calm 6.0 mph9.7 kmh 29.71 in1006.1 mb 0.00 in0.0 mm 0.00 in0.0 mm 0.00 in0.0 mm
10:45 AM 70.6°F21.4°C 61.1°F16.2°C 72% Calm Calm 3.0 mph4.8 kmh 29.70 in1005.8 mb 0.00 in0.0 mm 0.00 in0.0 mm 0.00 in0.0 mm
11:00 AM 71.5°F21.9°C 62.4°F16.9°C 73% 1.0 mph SW1.6 kmh SW 5.0 mph8.0 kmh 29.69 in1005.4 mb 0.00 in0.0 mm 0.00 in0.0 mm 0.00 in0.0 mm
11:15 AM 72.6°F22.6°C 63.1°F17.3°C 72% Calm Calm 4.0 mph6.4 kmh 29.68 in1005.1 mb 0.00 in0.0 mm 0.00 in0.0 mm 0.00 in0.0 mm
11:30 AM 73.6°F23.1°C 62.4°F16.9°C 68% 5.0 mph WSW8.0 kmh WSW 7.0 mph11.3 kmh 29.68 in1005.1 mb 0.00 in0.0 mm 0.00 in0.0 mm 0.00 in0.0 mm
11:45 AM 74.6°F23.7°C 63.8°F17.7°C 69% Calm Calm 5.0 mph8.0 kmh 29.68 in1005.1 mb 0.00 in0.0 mm 0.00 in0.0 mm 0.00 in0.0 mm
12:00 PM 75.9°F24.4°C 63.7°F17.6°C 66% 1.0 mph WSW1.6 kmh WSW 7.0 mph11.3 kmh 29.67 in1004.7 mb 0.00 in0.0 mm 0.00 in0.0 mm 0.00 in0.0 mm
12:15 PM 77.4°F25.2°C 64.7°F18.2°C 65% 1.0 mph WSW1.6 kmh WSW 6.0 mph9.7 kmh 29.66 in1004.4 mb 0.00 in0.0 mm 0.00 in0.0 mm 0.00 in0.0 mm
12:30 PM 78.7°F25.9°C 65.5°F18.6°C 64% Calm Calm 6.0 mph9.7 kmh 29.66 in1004.4 mb 0.00 in0.0 mm 0.00 in0.0 mm 0.00 in0.0 mm
12:45 PM 79.5°F26.4°C 66.3°F19.1°C 64% Calm Calm 4.0 mph6.4 kmh 29.65 in1004.1 mb 0.00 in0.0 mm 0.00 in0.0 mm 0.00 in0.0 mm
01:00 PM 80.4°F26.9°C 66.7°F19.3°C 63% Calm Calm 7.0 mph11.3 kmh 29.64 in1003.7 mb 0.00 in0.0 mm 0.00 in0.0 mm 0.00 in0.0 mm
01:15 PM 81.2°F27.3°C 66.5°F19.2°C 61% Calm Calm 6.0 mph9.7 kmh 29.63 in1003.4 mb 0.00 in0.0 mm 0.00 in0.0 mm 0.00 in0.0 mm
01:30 PM 82.1°F27.8°C 67.8°F19.9°C 62% Calm Calm 6.0 mph9.7 kmh 29.63 in1003.4 mb 0.00 in0.0 mm 0.00 in0.0 mm 0.00 in0.0 mm
01:45 PM 82.9°F28.3°C 67.6°F19.8°C 60% Calm Calm 4.0 mph6.4 kmh 29.62 in1003.0 mb 0.00 in0.0 mm 0.00 in0.0 mm 0.00 in0.0 mm
02:00 PM 83.8°F28.8°C 67.5°F19.7°C 58% Calm Calm 4.0 mph6.4 kmh 29.61 in1002.7 mb 0.00 in0.0 mm 0.00 in0.0 mm 0.00 in0.0 mm
02:15 PM 84.6°F29.2°C 67.7°F19.8°C 57% 2.0 mph NNW3.2 kmh NNW 6.0 mph9.7 kmh 29.61 in1002.7 mb 0.00 in0.0 mm 0.00 in0.0 mm 0.00 in0.0 mm
02:30 PM 85.4°F29.7°C 68.5°F20.3°C 57% Calm Calm 7.0 mph11.3 kmh 29.60 in1002.4 mb 0.00 in0.0 mm 0.00 in0.0 mm 0.00 in0.0 mm
02:45 PM 86.0°F30.0°C 68.0°F20.0°C 55% Calm Calm 6.0 mph9.7 kmh 29.60 in1002.4 mb 0.00 in0.0 mm 0.00 in0.0 mm 0.00 in0.0 mm
03:00 PM 86.3°F30.2°C 68.8°F20.4°C 56% 1.0 mph SW1.6 kmh SW 6.0 mph9.7 kmh 29.59 in1002.0 mb 0.00 in0.0 mm 0.00 in0.0 mm 0.00 in0.0 mm
03:15 PM 86.4°F30.2°C 68.9°F20.5°C 56% Calm Calm 5.0 mph8.0 kmh 29.58 in1001.7 mb 0.00 in0.0 mm 0.00 in0.0 mm 0.00 in0.0 mm
03:30 PM 85.8°F29.9°C 68.8°F20.4°C 57% 1.0 mph SW1.6 kmh SW 5.0 mph8.0 kmh 29.58 in1001.7 mb 0.00 in0.0 mm 0.00 in0.0 mm 0.00 in0.0 mm
03:45 PM 84.8°F29.3°C 69.9°F21.1°C 61% Calm Calm 4.0 mph6.4 kmh 29.56 in1001.0 mb 0.00 in0.0 mm 0.00 in0.0 mm 0.00 in0.0 mm
04:00 PM 83.8°F28.8°C 72.1°F22.3°C 68% Calm Calm 4.0 mph6.4 kmh 29.57 in1001.4 mb 0.00 in0.0 mm 0.00 in0.0 mm 0.00 in0.0 mm
04:15 PM 81.0°F27.2°C 70.3°F21.3°C 70% Calm Calm 2.0 mph3.2 kmh 29.57 in1001.4 mb 0.00 in0.0 mm 0.00 in0.0 mm 0.00 in0.0 mm
04:30 PM 77.9°F25.5°C 69.7°F20.9°C 76% Calm Calm 5.0 mph8.0 kmh 29.55 in1000.7 mb 0.00 in0.0 mm 0.00 in0.0 mm 0.00 in0.0 mm
04:45 PM 76.1°F24.5°C 70.2°F21.2°C 82% Calm Calm 2.0 mph3.2 kmh 29.53 in1000.0 mb 0.00 in0.0 mm 0.00 in0.0 mm 0.00 in0.0 mm
05:00 PM 74.3°F23.5°C 68.1°F20.1°C 81% 2.0 mph WSW3.2 kmh WSW 5.0 mph8.0 kmh 29.53 in1000.0 mb 0.00 in0.0 mm 0.00 in0.0 mm 0.00 in0.0 mm
05:15 PM 72.3°F22.4°C 63.9°F17.7°C 75% 2.0 mph SSW3.2 kmh SSW 15.0 mph24.1 kmh 29.58 in1001.7 mb 0.00 in0.0 mm 0.00 in0.0 mm 0.00 in0.0 mm
05:30 PM 68.1°F20.1°C 63.1°F17.3°C 84% 5.0 mph SSW8.0 kmh SSW 15.0 mph24.1 kmh 29.62 in1003.0 mb 0.34 in8.6 mm 1.36 in34.5 mm 0.34 in8.6 mm
05:45 PM 66.6°F19.2°C 62.9°F17.2°C 88% Calm Calm 4.0 mph6.4 kmh 29.65 in1004.1 mb 0.44 in11.2 mm 0.40 in10.2 mm 0.44 in11.2 mm
06:00 PM 65.7°F18.7°C 63.0°F17.2°C 91% Calm Calm 4.0 mph6.4 kmh 29.62 in1003.0 mb 0.46 in11.7 mm 0.03 in0.8 mm 0.46 in11.7 mm
06:15 PM 65.3°F18.5°C 62.9°F17.2°C 92% Calm Calm -- 29.58 in1001.7 mb 0.46 in11.7 mm 0.00 in0.0 mm 0.46 in11.7 mm
06:30 PM 65.1°F18.4°C 63.0°F17.2°C 93% Calm Calm 4.0 mph6.4 kmh 29.60 in1002.4 mb 0.48 in12.2 mm 0.08 in2.0 mm 0.48 in12.2 mm
06:45 PM 64.9°F18.3°C 63.1°F17.3°C 94% 4.0 mph W6.4 kmh W 5.0 mph8.0 kmh 29.59 in1002.0 mb 0.14 in3.6 mm 0.00 in0.0 mm 0.48 in12.2 mm
07:00 PM 64.7°F18.2°C 62.9°F17.2°C 94% Calm Calm 5.0 mph8.0 kmh 29.56 in1001.0 mb 0.17 in4.3 mm 0.04 in1.0 mm 0.51 in13.0 mm
07:15 PM 64.5°F18.1°C 62.7°F17.1°C 94% Calm Calm 1.0 mph1.6 kmh 29.52 in999.7 mb 0.09 in2.3 mm 0.00 in0.0 mm 0.51 in13.0 mm
07:30 PM 64.4°F18.0°C 62.6°F17.0°C 94% Calm Calm 2.0 mph3.2 kmh 29.52 in999.7 mb 0.09 in2.3 mm 0.00 in0.0 mm 0.51 in13.0 mm
07:45 PM 64.3°F17.9°C 62.8°F17.1°C 95% 2.0 mph NE3.2 kmh NE 3.0 mph4.8 kmh 29.51 in999.3 mb 0.07 in1.8 mm 0.00 in0.0 mm 0.51 in13.0 mm
08:00 PM 64.3°F17.9°C 62.8°F17.1°C 95% Calm Calm 7.0 mph11.3 kmh 29.51 in999.3 mb 0.07 in1.8 mm 0.00 in0.0 mm 0.51 in13.0 mm
08:15 PM 64.4°F18.0°C 62.9°F17.2°C 95% 3.0 mph WNW4.8 kmh WNW 4.0 mph6.4 kmh 29.55 in1000.7 mb 0.02 in0.5 mm 0.00 in0.0 mm 0.51 in13.0 mm
08:30 PM 64.3°F17.9°C 63.1°F17.3°C 96% Calm Calm 7.0 mph11.3 kmh 29.61 in1002.7 mb 0.02 in0.5 mm 0.00 in0.0 mm 0.51 in13.0 mm
08:45 PM 64.3°F17.9°C 63.1°F17.3°C 96% Calm Calm 6.0 mph9.7 kmh 29.65 in1004.1 mb 0.05 in1.3 mm 0.12 in3.0 mm 0.54 in13.7 mm
09:00 PM 64.3°F17.9°C 63.1°F17.3°C 96% Calm Calm 6.0 mph9.7 kmh 29.62 in1003.0 mb 0.06 in1.5 mm 0.01 in0.3 mm 0.55 in14.0 mm
09:15 PM 64.2°F17.9°C 63.0°F17.2°C 96% Calm Calm 2.0 mph3.2 kmh 29.62 in1003.0 mb 0.06 in1.5 mm 0.00 in0.0 mm 0.55 in14.0 mm
09:30 PM 64.3°F17.9°C 63.1°F17.3°C 96% Calm Calm 2.0 mph3.2 kmh 29.63 in1003.4 mb 0.08 in2.0 mm 0.08 in2.0 mm 0.57 in14.5 mm
09:45 PM 64.3°F17.9°C 63.1°F17.3°C 96% Calm Calm 1.0 mph1.6 kmh 29.62 in1003.0 mb 0.09 in2.3 mm 0.04 in1.0 mm 0.58 in14.7 mm
10:00 PM 64.2°F17.9°C 63.0°F17.2°C 96% Calm Calm 3.0 mph4.8 kmh 29.61 in1002.7 mb 0.10 in2.5 mm 0.01 in0.3 mm 0.59 in15.0 mm
10:15 PM 64.3°F17.9°C 63.1°F17.3°C 96% Calm Calm 2.0 mph3.2 kmh 29.60 in1002.4 mb 0.06 in1.5 mm 0.00 in0.0 mm 0.59 in15.0 mm
10:30 PM 64.3°F17.9°C 63.1°F17.3°C 96% Calm Calm 2.0 mph3.2 kmh 29.60 in1002.4 mb 0.06 in1.5 mm 0.00 in0.0 mm 0.59 in15.0 mm
10:45 PM 64.1°F17.8°C 62.9°F17.2°C 96% 1.0 mph SSW1.6 kmh SSW 9.0 mph14.5 kmh 29.60 in1002.4 mb 0.04 in1.0 mm 0.00 in0.0 mm 0.59 in15.0 mm
11:00 PM 63.9°F17.7°C 62.7°F17.1°C 96% Calm Calm 9.0 mph14.5 kmh 29.60 in1002.4 mb 0.04 in1.0 mm 0.00 in0.0 mm 0.59 in15.0 mm
11:15 PM 63.7°F17.6°C 62.5°F16.9°C 96% Calm Calm 7.0 mph11.3 kmh 29.58 in1001.7 mb 0.01 in0.3 mm 0.00 in0.0 mm 0.59 in15.0 mm
11:30 PM 63.5°F17.5°C 62.3°F16.8°C 96% Calm Calm 7.0 mph11.3 kmh 29.58 in1001.7 mb 0.01 in0.3 mm 0.00 in0.0 mm 0.59 in15.0 mm
11:45 PM 63.2°F17.3°C 62.0°F16.7°C 96% Calm Calm 1.0 mph1.6 kmh 29.59 in1002.0 mb 0.00 in0.0 mm 0.00 in0.0 mm 0.59 in15.0 mm